createdAt,value
2022-12-08T00:02:02.195Z,100156.31
2022-12-08T00:04:51.000Z,100162.59
2022-12-08T00:07:36.495Z,100161.75
2022-12-08T00:10:25.218Z,100154.44
2022-12-08T00:12:53.310Z,100149.13
2022-12-08T00:15:21.382Z,100157.97
2022-12-08T00:17:50.982Z,100164.25
2022-12-08T00:20:19.102Z,100152.75
2022-12-08T00:22:47.567Z,100148.31
2022-12-08T00:25:15.880Z,100159.84
2022-12-08T00:27:44.183Z,100160.78
2022-12-08T00:30:12.764Z,100155.56
2022-12-08T00:32:40.925Z,100159.16
2022-12-08T00:35:10.665Z,100159.16
2022-12-08T00:37:38.684Z,100169.81
2022-12-08T00:40:08.166Z,100166.41
2022-12-08T00:42:36.180Z,100161.25
2022-12-08T00:45:04.441Z,100171.72
2022-12-08T00:47:32.493Z,100168.31
2022-12-08T00:50:01.602Z,100170.19
2022-12-08T00:52:31.326Z,100171.81
2022-12-08T00:54:59.561Z,100180.66
2022-12-08T00:57:28.444Z,100170.97
2022-12-08T00:59:57.244Z,100159.53
2022-12-08T01:02:25.792Z,100171.91
2022-12-08T01:04:53.951Z,100164.00
2022-12-08T01:07:21.990Z,100165.78
2022-12-08T01:09:51.483Z,100170.28
2022-12-08T01:12:19.697Z,100173.78
2022-12-08T01:14:47.732Z,100169.50
2022-12-08T01:17:16.171Z,100175.69
2022-12-08T01:19:44.397Z,100164.09
2022-12-08T01:22:12.474Z,100165.22
2022-12-08T01:24:40.647Z,100166.94
2022-12-08T01:27:10.036Z,100171.31
2022-12-08T01:29:38.394Z,100172.44
2022-12-08T01:32:06.540Z,100169.00
2022-12-08T01:34:34.856Z,100158.44
2022-12-08T01:37:02.915Z,100173.56
2022-12-08T01:39:31.126Z,100161.94
2022-12-08T01:41:59.247Z,100164.72
2022-12-08T01:44:58.638Z,100164.72
2022-12-08T01:47:32.994Z,100166.50
2022-12-08T01:50:02.539Z,100156.81
2022-12-08T01:52:36.745Z,100165.66
2022-12-08T01:55:10.041Z,100156.81
2022-12-08T01:57:43.479Z,100146.34
2022-12-08T02:00:16.291Z,100160.44
2022-12-08T02:02:54.364Z,100153.38
2022-12-08T02:05:24.726Z,100156.13
2022-12-08T02:07:53.741Z,100145.50
2022-12-08T02:10:23.937Z,100141.97
2022-12-08T02:12:55.711Z,100141.19
2022-12-08T02:15:34.433Z,100139.38
2022-12-08T02:18:16.358Z,100132.34
2022-12-08T02:20:54.827Z,100139.47
2022-12-08T02:23:32.628Z,100138.59
2022-12-08T02:26:33.333Z,100134.22
2022-12-08T02:29:19.849Z,100124.44
2022-12-08T02:32:09.563Z,100123.69
2022-12-08T02:34:45.479Z,100137.94
2022-12-08T02:37:19.826Z,100129.19
2022-12-08T02:39:54.175Z,100129.94
2022-12-08T02:42:28.903Z,100132.78
2022-12-08T02:45:02.674Z,100138.97
2022-12-08T02:47:33.268Z,100125.56
2022-12-08T02:50:03.444Z,100130.91
2022-12-08T02:52:41.912Z,100123.00
2022-12-08T02:55:16.876Z,100124.81
2022-12-08T02:57:57.776Z,100124.88
2022-12-08T03:00:28.483Z,100116.22
2022-12-08T03:03:09.204Z,100103.66
2022-12-08T03:05:59.114Z,100106.31
2022-12-08T03:08:36.511Z,100104.63
2022-12-08T03:11:12.806Z,100106.50
2022-12-08T03:13:44.809Z,100102.06
2022-12-08T03:16:17.062Z,100105.56
2022-12-08T03:18:49.860Z,100108.31
2022-12-08T03:21:21.835Z,100107.47
2022-12-08T03:23:53.396Z,100101.38
2022-12-08T03:26:32.434Z,100111.06
2022-12-08T03:29:00.985Z,100111.06
2022-12-08T03:31:35.159Z,100106.09
2022-12-08T03:34:04.459Z,100106.84
2022-12-08T03:36:34.074Z,100115.59
2022-12-08T03:39:02.205Z,100118.38
2022-12-08T03:41:30.538Z,100108.56
2022-12-08T03:44:00.472Z,100108.56
2022-12-08T03:49:00.671Z,100114.94
2022-12-08T03:51:29.246Z,100115.88
2022-12-08T03:53:58.658Z,100114.09
2022-12-08T03:56:29.254Z,100106.09
2022-12-08T03:58:57.449Z,100101.72
2022-12-08T04:01:28.279Z,100108.94
2022-12-08T04:03:56.675Z,100100.97
2022-12-08T04:06:25.101Z,100102.66
2022-12-08T04:08:53.547Z,100101.81
2022-12-08T04:11:23.076Z,100100.97
2022-12-08T04:13:51.519Z,100096.59
2022-12-08T04:16:21.407Z,100093.91
2022-12-08T04:18:50.529Z,100096.59
2022-12-08T04:21:19.015Z,100094.88
2022-12-08T04:23:47.607Z,100082.47
2022-12-08T04:26:16.531Z,100084.22
2022-12-08T04:28:46.142Z,100084.38
2022-12-08T04:31:14.408Z,100089.53
2022-12-08T04:33:42.530Z,100083.28
2022-12-08T04:36:11.175Z,100077.94
2022-12-08T04:38:39.160Z,100078.91
2022-12-08T04:41:07.329Z,100082.47
2022-12-08T04:43:36.269Z,100087.75
2022-12-08T04:46:09.235Z,100085.22
2022-12-08T04:48:39.560Z,100082.47
2022-12-08T04:51:08.437Z,100077.16
2022-12-08T04:53:36.524Z,100082.47
2022-12-08T04:56:04.946Z,100082.47
2022-12-08T04:58:33.267Z,100082.47
2022-12-08T05:01:01.446Z,100093.13
2022-12-08T05:03:30.922Z,100094.25
2022-12-08T05:06:00.400Z,100082.84
2022-12-08T05:08:29.433Z,100091.78
2022-12-08T05:11:03.273Z,100095.53
2022-12-08T05:13:31.555Z,100095.53
2022-12-08T05:16:05.044Z,100090.22
2022-12-08T05:18:34.645Z,100092.13
2022-12-08T05:21:05.985Z,100100.00
2022-12-08T05:23:34.310Z,100094.69
2022-12-08T05:26:02.804Z,100099.16
2022-12-08T05:28:46.101Z,100099.16
2022-12-08T05:31:15.633Z,100094.69
2022-12-08T05:33:46.362Z,100093.81
2022-12-08T05:36:16.319Z,100089.47
2022-12-08T05:38:44.790Z,100085.09
2022-12-08T05:41:16.386Z,100079.75
2022-12-08T05:43:44.466Z,100073.59
2022-12-08T05:46:12.907Z,100069.97
2022-12-08T05:48:41.372Z,100062.09
2022-12-08T05:51:19.687Z,100056.75
2022-12-08T05:53:48.782Z,100065.69
2022-12-08T05:56:17.014Z,100071.00
2022-12-08T05:58:46.081Z,100071.16
2022-12-08T06:01:23.737Z,100086.13
2022-12-08T06:03:51.885Z,100079.09
2022-12-08T06:06:21.828Z,100088.69
2022-12-08T06:08:50.236Z,100086.97
2022-12-08T06:11:23.261Z,100086.13
2022-12-08T06:13:52.123Z,100087.94
2022-12-08T06:16:20.568Z,100089.78
2022-12-08T06:18:48.928Z,100097.78
2022-12-08T06:21:18.347Z,100097.00
2022-12-08T06:23:51.571Z,100099.66
2022-12-08T06:26:20.451Z,100100.53
2022-12-08T06:28:49.347Z,100097.78
2022-12-08T06:31:19.658Z,100097.78
2022-12-08T06:33:48.516Z,100103.09
2022-12-08T06:36:17.805Z,100103.09
2022-12-08T06:38:46.492Z,100103.09
2022-12-08T06:41:16.096Z,100104.84
2022-12-08T06:43:45.114Z,100096.84
2022-12-08T06:46:15.589Z,100096.84
2022-12-08T06:48:43.976Z,100104.84
2022-12-08T06:51:13.832Z,100094.19
2022-12-08T06:53:42.815Z,100102.09
2022-12-08T06:56:11.860Z,100106.56
2022-12-08T06:58:41.318Z,100103.03
2022-12-08T07:01:11.272Z,100104.84
2022-12-08T07:03:40.701Z,100111.88
2022-12-08T07:06:09.080Z,100117.19
2022-12-08T07:08:37.288Z,100104.31
2022-12-08T07:11:09.700Z,100110.16
2022-12-08T07:13:38.148Z,100110.16
2022-12-08T07:16:09.373Z,100105.75
2022-12-08T07:18:38.030Z,100102.19
2022-12-08T07:21:07.955Z,100088.34
2022-12-08T07:23:37.051Z,100099.53
2022-12-08T07:26:07.848Z,100104.75
2022-12-08T07:28:38.859Z,100101.22
2022-12-08T07:31:10.692Z,100101.22
2022-12-08T07:33:39.019Z,100100.28
2022-12-08T07:36:07.951Z,100104.84
2022-12-08T07:38:36.390Z,100096.78
2022-12-08T07:41:04.436Z,100093.06
2022-12-08T07:43:32.965Z,100094.00
2022-12-08T07:46:01.428Z,100098.38
2022-12-08T07:48:31.087Z,100099.34
2022-12-08T07:51:02.368Z,100105.50
2022-12-08T07:53:30.478Z,100104.66
2022-12-08T07:55:58.494Z,100093.41
2022-12-08T07:58:27.746Z,100086.97
2022-12-08T08:00:55.900Z,100095.63
2022-12-08T08:03:24.097Z,100093.06
2022-12-08T08:05:54.490Z,100091.25
2022-12-08T08:08:22.577Z,100099.34
2022-12-08T08:10:50.716Z,100101.06
2022-12-08T08:13:18.699Z,100097.44
2022-12-08T08:15:46.829Z,100099.16
2022-12-08T08:18:14.990Z,100098.19
2022-12-08T08:20:43.046Z,100100.88
2022-12-08T08:23:12.591Z,100099.06
2022-12-08T08:25:40.609Z,100097.25
2022-12-08T08:28:09.377Z,100092.78
2022-12-08T08:30:37.589Z,100090.97
2022-12-08T08:33:05.642Z,100087.66
2022-12-08T08:35:34.436Z,100086.78
2022-12-08T08:38:02.555Z,100097.44
2022-12-08T08:40:32.106Z,100094.69
2022-12-08T08:43:01.860Z,100096.50
2022-12-08T08:45:29.974Z,100093.75
2022-12-08T08:47:58.475Z,100091.06
2022-12-08T08:50:26.620Z,100093.75
2022-12-08T08:52:54.801Z,100093.66
2022-12-08T08:55:23.052Z,100090.06
2022-12-08T08:57:52.572Z,100094.53
2022-12-08T09:00:21.387Z,100092.72
2022-12-08T09:02:50.011Z,100090.06
2022-12-08T09:05:18.164Z,100078.47
2022-12-08T09:07:46.257Z,100065.16
2022-12-08T09:10:14.551Z,100070.41
2022-12-08T09:12:42.657Z,100068.69
2022-12-08T09:15:12.773Z,100080.09
2022-12-08T09:17:40.862Z,100079.25
2022-12-08T09:20:09.730Z,100080.94
2022-12-08T09:22:38.081Z,100063.28
2022-12-08T09:25:06.890Z,100047.31
2022-12-08T09:27:35.015Z,100048.16
2022-12-08T09:30:03.693Z,100057.94
2022-12-08T09:32:33.556Z,100060.59
2022-12-08T09:35:01.857Z,100062.31
2022-12-08T09:37:29.933Z,100068.50
2022-12-08T09:39:58.234Z,100069.44
2022-12-08T09:42:34.863Z,100057.94
2022-12-08T09:45:10.679Z,100055.19
2022-12-08T09:47:43.610Z,100050.72
2022-12-08T09:50:17.148Z,100038.38
2022-12-08T09:52:50.193Z,100036.56
2022-12-08T09:55:34.892Z,100027.63
2022-12-08T09:58:06.093Z,100015.19
2022-12-08T10:00:35.321Z,100021.34
2022-12-08T10:03:05.216Z,100016.03
2022-12-08T10:05:39.061Z,100013.38
2022-12-08T10:08:12.845Z,100015.19
2022-12-08T10:10:58.382Z,100023.06
2022-12-08T10:13:37.343Z,100016.31
2022-12-08T10:16:23.043Z,100024.13
2022-12-08T10:19:06.544Z,100039.91
2022-12-08T10:21:34.720Z,100033.66
2022-12-08T10:24:07.215Z,100033.66
2022-12-08T10:26:35.273Z,100034.50
2022-12-08T10:29:03.678Z,100015.09
2022-12-08T10:31:32.923Z,100014.06
2022-12-08T10:34:17.415Z,100013.97
2022-12-08T10:36:47.491Z,100007.81
2022-12-08T10:39:32.938Z,99999.81
2022-12-08T10:42:19.143Z,99988.22
2022-12-08T10:45:01.662Z,99982.03
2022-12-08T10:47:31.436Z,99973.09
2022-12-08T10:50:20.511Z,99982.81
2022-12-08T10:52:56.600Z,99972.25
2022-12-08T10:55:25.345Z,99968.63
2022-12-08T10:57:53.545Z,99963.31
2022-12-08T11:00:23.346Z,99956.19
2022-12-08T11:02:55.333Z,99951.72
2022-12-08T11:05:30.462Z,99950.75
2022-12-08T11:07:59.430Z,99947.16
2022-12-08T11:10:36.785Z,99947.16
2022-12-08T11:13:07.589Z,99946.19
2022-12-08T11:15:41.547Z,99938.31
2022-12-08T11:18:22.848Z,99920.72
2022-12-08T11:21:02.948Z,99933.69
2022-12-08T11:23:32.122Z,99927.41
2022-12-08T11:26:11.661Z,99922.94
2022-12-08T11:28:43.359Z,99914.00
2022-12-08T11:31:22.900Z,99906.09
2022-12-08T11:33:53.510Z,99899.72
2022-12-08T11:36:27.079Z,99904.97
2022-12-08T11:38:59.176Z,99893.34
2022-12-08T11:41:33.611Z,99888.03
2022-12-08T11:44:12.350Z,99878.25
2022-12-08T11:46:44.808Z,99868.44
2022-12-08T11:49:15.602Z,99858.75
2022-12-08T11:51:49.708Z,99853.31
2022-12-08T11:54:24.441Z,99848.00
2022-12-08T11:56:55.659Z,99854.19
2022-12-08T11:59:29.692Z,99855.91
2022-12-08T12:01:59.425Z,99853.25
2022-12-08T12:04:33.420Z,99852.38
2022-12-08T12:07:34.530Z,99855.91
2022-12-08T12:10:34.956Z,99853.16
2022-12-08T12:13:14.338Z,99854.00
2022-12-08T12:16:27.743Z,99858.38
2022-12-08T12:19:00.127Z,99859.34
2022-12-08T12:21:34.928Z,99858.47
2022-12-08T12:24:09.350Z,99854.00
2022-12-08T12:26:49.482Z,99861.03
2022-12-08T12:29:20.395Z,99862.75
2022-12-08T12:31:53.245Z,99857.44
2022-12-08T12:34:24.072Z,99860.19
2022-12-08T12:36:55.843Z,99861.78
2022-12-08T12:39:30.025Z,99855.03
2022-12-08T12:42:00.241Z,99860.09
2022-12-08T12:44:40.635Z,99863.59
2022-12-08T12:47:36.440Z,99858.19
2022-12-08T12:50:10.772Z,99862.56
2022-12-08T12:52:49.434Z,99852.84
2022-12-08T12:55:50.664Z,99854.56
2022-12-08T12:58:40.848Z,99851.91
2022-12-08T13:01:46.145Z,99839.34
2022-12-08T13:04:14.442Z,99834.97
2022-12-08T13:06:46.799Z,99842.09
2022-12-08T13:09:22.778Z,99842.09
2022-12-08T13:11:55.193Z,99842.97
2022-12-08T13:14:35.723Z,99832.31
2022-12-08T13:17:09.085Z,99836.69
2022-12-08T13:19:39.913Z,99838.41
2022-12-08T13:22:45.303Z,99835.75
2022-12-08T13:25:49.901Z,99829.56
2022-12-08T13:28:29.735Z,99833.09
2022-12-08T13:30:59.682Z,99834.03
2022-12-08T13:33:31.563Z,99827.78
2022-12-08T13:36:23.453Z,99821.84
2022-12-08T13:38:56.484Z,99830.59
2022-12-08T13:41:35.837Z,99826.97
2022-12-08T13:45:03.667Z,99831.47
2022-12-08T13:58:31.673Z,99830.59
2022-12-08T14:01:06.619Z,99834.03
2022-12-08T14:04:11.785Z,99826.13
2022-12-08T14:06:37.775Z,99828.69
2022-12-08T14:09:13.451Z,99828.69
2022-12-08T14:11:45.220Z,99825.19
2022-12-08T14:14:32.678Z,99828.69
2022-12-08T14:17:08.063Z,99820.69
2022-12-08T14:19:37.015Z,99830.44
2022-12-08T14:22:12.624Z,99836.63
2022-12-08T14:24:41.979Z,99833.94
2022-12-08T14:27:16.505Z,99823.38
2022-12-08T14:29:47.834Z,99825.19
2022-12-08T14:32:25.997Z,99834.91
2022-12-08T14:34:56.706Z,99834.03
2022-12-08T14:37:27.518Z,99831.47
2022-12-08T14:40:01.817Z,99840.22
2022-12-08T14:42:30.989Z,99836.63
2022-12-08T14:45:05.063Z,99835.75
2022-12-08T14:47:34.878Z,99831.34
2022-12-08T14:50:05.344Z,99835.75
2022-12-08T14:52:33.842Z,99841.09
2022-12-08T14:55:01.934Z,99838.41
2022-12-08T14:57:36.385Z,99835.75
2022-12-08T15:00:12.448Z,99830.44
2022-12-08T15:02:47.199Z,99826.03
2022-12-08T15:05:19.226Z,99830.44
2022-12-08T15:07:50.433Z,99823.38
2022-12-08T15:10:27.644Z,99822.44
2022-12-08T15:13:04.937Z,99826.81
2022-12-08T15:15:47.959Z,99817.13
2022-12-08T15:18:19.075Z,99813.59
2022-12-08T15:20:50.225Z,99814.47
2022-12-08T15:23:25.639Z,99818.81
2022-12-08T15:25:54.832Z,99817.97
2022-12-08T15:28:29.457Z,99814.53
2022-12-08T15:31:00.234Z,99818.94
2022-12-08T15:33:28.576Z,99822.50
2022-12-08T15:35:56.779Z,99816.25
2022-12-08T15:38:27.222Z,99813.59
2022-12-08T15:40:56.213Z,99818.94
2022-12-08T15:43:24.455Z,99803.81
2022-12-08T15:45:59.419Z,99796.75
2022-12-08T15:48:31.403Z,99795.88
2022-12-08T15:50:59.957Z,99784.38
2022-12-08T15:53:28.143Z,99779.06
2022-12-08T15:58:54.242Z,99788.00
2022-12-08T16:01:24.227Z,99786.28
2022-12-08T16:04:47.258Z,99787.03
2022-12-08T16:09:38.519Z,99787.03
2022-12-08T16:12:25.948Z,99797.69
2022-12-08T16:17:42.740Z,99798.66
2022-12-08T16:20:16.843Z,99786.28
2022-12-08T16:22:59.591Z,99797.69
2022-12-08T16:26:00.499Z,99794.19
2022-12-08T16:28:52.677Z,99796.00
2022-12-08T16:31:16.648Z,99793.31
2022-12-08T16:33:46.892Z,99792.38
2022-12-08T16:36:16.408Z,99794.06
2022-12-08T16:38:44.860Z,99781.72
2022-12-08T16:41:32.739Z,99784.38
2022-12-08T16:44:03.183Z,99780.97
2022-12-08T16:46:31.364Z,99780.97
2022-12-08T16:48:59.743Z,99778.31
2022-12-08T16:51:29.630Z,99780.97
2022-12-08T16:53:58.647Z,99778.31
2022-12-08T16:56:32.680Z,99788.09
2022-12-08T16:59:02.562Z,99784.59
2022-12-08T17:01:31.435Z,99792.56
2022-12-08T17:04:30.966Z,99792.56
2022-12-08T17:06:50.962Z,99798.09
2022-12-08T17:09:19.294Z,99796.94
2022-12-08T17:11:47.389Z,99796.09
2022-12-08T17:14:16.192Z,99787.25
2022-12-08T17:16:45.308Z,99782.88
2022-12-08T17:19:15.328Z,99792.56
2022-12-08T17:21:44.418Z,99778.50
2022-12-08T17:24:18.602Z,99788.22
2022-12-08T17:26:51.665Z,99781.19
2022-12-08T17:29:19.817Z,99785.53
2022-12-08T17:31:50.596Z,99789.06
2022-12-08T17:34:18.937Z,99789.91
2022-12-08T17:36:47.120Z,99790.88
2022-12-08T17:39:18.640Z,99802.38
2022-12-08T17:41:48.028Z,99804.19
2022-12-08T17:44:18.231Z,99786.59
2022-12-08T17:46:52.136Z,99780.31
2022-12-08T17:49:23.474Z,99775.00
2022-12-08T17:51:54.227Z,99766.16
2022-12-08T17:54:23.735Z,99769.56
2022-12-08T17:56:52.570Z,99781.19
2022-12-08T17:59:20.704Z,99777.66
2022-12-08T18:01:48.810Z,99781.19
2022-12-08T18:04:17.021Z,99775.84
2022-12-08T18:06:45.151Z,99776.69
2022-12-08T18:09:14.028Z,99782.78
2022-12-08T18:11:44.315Z,99780.22
2022-12-08T18:14:14.349Z,99776.06
2022-12-08T18:16:44.816Z,99768.81
2022-12-08T18:19:14.267Z,99764.25
2022-12-08T18:21:43.159Z,99762.53
2022-12-08T18:24:18.083Z,99767.75
2022-12-08T18:26:47.849Z,99768.63
2022-12-08T18:29:16.010Z,99765.00
2022-12-08T18:31:44.438Z,99759.88
2022-12-08T18:34:12.617Z,99761.59
2022-12-08T18:36:40.751Z,99767.75
2022-12-08T18:39:22.719Z,99763.28
2022-12-08T18:41:52.282Z,99765.94
2022-12-08T18:44:20.517Z,99770.41
2022-12-08T18:46:49.401Z,99781.94
2022-12-08T18:49:19.805Z,99779.25
2022-12-08T18:51:48.144Z,99771.38
2022-12-08T18:54:16.428Z,99777.56
2022-12-08T18:56:44.594Z,99774.03
2022-12-08T18:59:14.340Z,99775.66
2022-12-08T19:01:42.851Z,99777.47
2022-12-08T19:04:27.924Z,99772.13
2022-12-08T19:06:58.002Z,99762.44
2022-12-08T19:09:28.881Z,99759.78
2022-12-08T19:11:57.986Z,99762.44
2022-12-08T19:14:30.532Z,99771.28
2022-12-08T19:16:59.119Z,99773.94
2022-12-08T19:19:27.328Z,99766.91
2022-12-08T19:21:55.627Z,99768.63
2022-12-08T19:24:23.698Z,99772.13
2022-12-08T19:26:51.993Z,99770.31
2022-12-08T19:29:20.274Z,99775.66
2022-12-08T19:31:49.895Z,99772.97
2022-12-08T19:34:17.957Z,99774.78
2022-12-08T19:36:46.206Z,99780.97
2022-12-08T19:39:37.255Z,99780.97
2022-12-08T19:42:24.871Z,99773.94
2022-12-08T19:44:55.632Z,99766.69
2022-12-08T19:47:27.918Z,99765.94
2022-12-08T19:50:17.792Z,99769.25
2022-12-08T19:52:46.337Z,99768.41
2022-12-08T19:55:14.500Z,99766.59
2022-12-08T19:57:42.887Z,99767.47
2022-12-08T20:00:12.702Z,99765.47
2022-12-08T20:02:42.353Z,99755.47
2022-12-08T20:05:15.061Z,99755.47
2022-12-08T20:07:43.737Z,99757.19
2022-12-08T20:10:17.981Z,99757.19
2022-12-08T20:12:46.213Z,99759.72
2022-12-08T20:15:14.893Z,99758.03
2022-12-08T20:17:44.748Z,99749.97
2022-12-08T20:20:15.443Z,99752.63
2022-12-08T20:22:45.294Z,99740.25
2022-12-08T20:25:14.422Z,99735.88
2022-12-08T20:27:42.900Z,99738.34
2022-12-08T20:30:16.745Z,99735.69
2022-12-08T20:32:46.982Z,99739.31
2022-12-08T20:35:16.998Z,99733.09
2022-12-08T20:37:45.141Z,99735.69
2022-12-08T20:40:13.838Z,99740.16
2022-12-08T20:42:41.980Z,99750.81
2022-12-08T20:45:10.842Z,99742.91
2022-12-08T20:47:39.288Z,99749.00
2022-12-08T20:50:11.002Z,99749.97
2022-12-08T20:52:39.570Z,99753.47
2022-12-08T20:55:10.565Z,99750.81
2022-12-08T20:57:38.916Z,99762.31
2022-12-08T21:00:09.152Z,99763.28
2022-12-08T21:02:43.252Z,99770.31
2022-12-08T21:05:16.737Z,99772.13
2022-12-08T21:07:45.402Z,99763.28
2022-12-08T21:10:14.124Z,99765.84
2022-12-08T21:12:42.434Z,99767.66
2022-12-08T21:15:12.466Z,99779.16
2022-12-08T21:17:40.954Z,99769.34
2022-12-08T21:20:10.585Z,99772.03
2022-12-08T21:22:40.999Z,99765.00
2022-12-08T21:25:09.916Z,99764.78
2022-12-08T21:27:39.031Z,99777.13
2022-12-08T21:30:09.138Z,99783.22
2022-12-08T21:32:39.070Z,99774.28
2022-12-08T21:35:08.325Z,99755.72
2022-12-08T21:37:37.030Z,99750.41
2022-12-08T21:40:09.238Z,99753.91
2022-12-08T21:42:48.977Z,99747.63
2022-12-08T21:45:19.265Z,99728.25
2022-12-08T21:47:49.384Z,99728.25
2022-12-08T21:50:18.889Z,99729.94
2022-12-08T21:52:50.104Z,99724.63
2022-12-08T21:55:20.421Z,99726.53
2022-12-08T21:57:48.493Z,99722.16
2022-12-08T22:00:18.283Z,99732.06
2022-12-08T22:02:46.972Z,99733.78
2022-12-08T22:05:15.369Z,99740.81
2022-12-08T22:07:43.945Z,99749.75
2022-12-08T22:10:12.493Z,99744.44
2022-12-08T22:12:42.884Z,99746.13
2022-12-08T22:15:12.059Z,99734.00
2022-12-08T22:17:42.223Z,99741.78
2022-12-08T22:20:13.436Z,99737.41
2022-12-08T22:22:42.405Z,99745.19
2022-12-08T22:25:12.519Z,99739.97
2022-12-08T22:27:42.691Z,99714.41
2022-12-08T22:30:12.040Z,99755.09
2022-12-08T22:32:40.436Z,99757.75
2022-12-08T22:35:09.637Z,99757.75
2022-12-08T22:37:37.758Z,99753.16
2022-12-08T22:40:08.246Z,99756.78
2022-12-08T22:42:36.930Z,99755.84
2022-12-08T22:45:07.575Z,99754.88
2022-12-08T22:47:35.945Z,99748.69
2022-12-08T22:50:05.761Z,99739.97
2022-12-08T22:52:34.127Z,99748.91
2022-12-08T22:55:02.260Z,99752.53
2022-12-08T22:57:30.502Z,99748.81
2022-12-08T22:59:58.743Z,99740.81
2022-12-08T23:02:28.385Z,99740.91
2022-12-08T23:04:57.272Z,99740.81
2022-12-08T23:07:25.691Z,99748.91
2022-12-08T23:09:54.131Z,99747.09
2022-12-08T23:12:24.061Z,99742.72
2022-12-08T23:14:52.269Z,99752.53
2022-12-08T23:17:20.708Z,99749.88
2022-12-08T23:19:50.567Z,99743.59
2022-12-08T23:22:18.904Z,99734.75
2022-12-08T23:24:46.983Z,99744.53
2022-12-08T23:27:15.350Z,99741.03
2022-12-08T23:29:43.478Z,99733.88
2022-12-08T23:32:11.796Z,99732.06
2022-12-08T23:34:40.035Z,99720.00
2022-12-08T23:37:09.729Z,99735.69
2022-12-08T23:39:37.859Z,99739.31
2022-12-08T23:42:06.220Z,99755.28
2022-12-08T23:44:34.476Z,99753.56
2022-12-08T23:47:02.680Z,99744.63
2022-12-08T23:49:31.222Z,99735.69
2022-12-08T23:52:00.233Z,99728.66
2022-12-08T23:54:29.951Z,99721.59
2022-12-08T23:56:58.043Z,99729.53
2022-12-08T23:59:26.154Z,99726.00
